createdAt,value
2023-02-24T00:00:26.140Z,955.85
2023-02-24T00:01:26.146Z,955.87
2023-02-24T00:02:26.228Z,955.84
2023-02-24T00:03:26.287Z,955.88
2023-02-24T00:04:26.138Z,955.85
2023-02-24T00:06:26.194Z,955.83
2023-02-24T00:07:26.175Z,955.88
2023-02-24T00:09:26.228Z,955.86
2023-02-24T00:10:26.147Z,955.89
2023-02-24T00:11:26.166Z,955.88
2023-02-24T00:12:26.175Z,955.85
2023-02-24T00:13:26.165Z,955.82
2023-02-24T00:17:26.384Z,955.78
2023-02-24T00:18:26.181Z,955.81
2023-02-24T00:20:26.187Z,955.8
2023-02-24T00:21:26.172Z,955.74
2023-02-24T00:22:26.203Z,955.77
2023-02-24T00:24:26.190Z,955.71
2023-02-24T00:25:26.192Z,955.73
2023-02-24T00:27:26.204Z,955.72
2023-02-24T00:28:26.200Z,955.73
2023-02-24T00:29:26.212Z,955.68
2023-02-24T00:30:26.201Z,955.7
2023-02-24T00:32:26.439Z,955.72
2023-02-24T00:33:26.205Z,955.68
2023-02-24T00:34:26.223Z,955.67
2023-02-24T00:35:26.227Z,955.68
2023-02-24T00:36:26.222Z,955.67
2023-02-24T00:37:26.215Z,955.62
2023-02-24T00:38:26.226Z,955.64
2023-02-24T00:39:26.246Z,955.65
2023-02-24T00:40:26.220Z,955.66
2023-02-24T00:41:26.448Z,955.63
2023-02-24T00:43:26.358Z,955.6
2023-02-24T00:44:26.355Z,955.58
2023-02-24T00:45:26.334Z,955.61
2023-02-24T00:47:26.250Z,955.63
2023-02-24T00:48:26.263Z,955.61
2023-02-24T00:50:26.254Z,955.59
2023-02-24T00:51:26.260Z,955.57
2023-02-24T00:52:26.322Z,955.58
2023-02-24T00:53:26.262Z,955.55
2023-02-24T00:54:26.274Z,955.57
2023-02-24T00:55:26.268Z,955.59
2023-02-24T00:56:26.269Z,955.54
2023-02-24T00:57:26.272Z,955.55
2023-02-24T00:58:26.271Z,955.54
2023-02-24T00:59:26.278Z,955.58
2023-02-24T01:00:26.283Z,955.57
2023-02-24T01:01:26.321Z,955.54
2023-02-24T01:04:26.380Z,955.61
2023-02-24T01:05:26.296Z,955.6
2023-02-24T01:06:26.292Z,955.56
2023-02-24T01:07:26.300Z,955.55
2023-02-24T01:09:26.292Z,955.57
2023-02-24T01:10:26.303Z,955.56
2023-02-24T01:12:26.300Z,955.54
2023-02-24T01:13:26.424Z,955.52
2023-02-24T01:14:26.385Z,955.51
2023-02-24T01:15:26.301Z,955.47
2023-02-24T01:16:26.448Z,955.36
2023-02-24T01:17:26.414Z,955.43
2023-02-24T01:18:26.461Z,955.46
2023-02-24T01:19:26.431Z,955.44
2023-02-24T01:22:26.408Z,955.4
2023-02-24T01:23:26.347Z,955.43
2023-02-24T01:24:26.325Z,955.41
2023-02-24T01:25:26.328Z,955.37
2023-02-24T01:26:26.402Z,955.41
2023-02-24T01:27:26.345Z,955.35
2023-02-24T01:28:26.336Z,955.36
2023-02-24T01:29:26.333Z,955.33
2023-02-24T01:30:26.343Z,955.32
2023-02-24T01:31:26.472Z,955.3
2023-02-24T01:33:26.407Z,955.33
2023-02-24T01:34:26.488Z,955.29
2023-02-24T01:36:26.502Z,955.34
2023-02-24T01:37:26.353Z,955.28
2023-02-24T01:38:26.358Z,955.29
2023-02-24T01:39:26.361Z,955.3
2023-02-24T01:41:26.446Z,955.29
2023-02-24T01:42:26.393Z,955.28
2023-02-24T01:43:26.377Z,955.27
2023-02-24T01:44:26.537Z,955.28
2023-02-24T01:45:26.379Z,955.23
2023-02-24T01:46:26.437Z,955.24
2023-02-24T01:47:26.389Z,955.22
2023-02-24T01:48:26.402Z,955.23
2023-02-24T01:49:26.381Z,955.2
2023-02-24T01:50:26.451Z,955.19
2023-02-24T01:51:26.403Z,955.23
2023-02-24T01:52:26.395Z,955.21
2023-02-24T01:54:26.483Z,955.2
2023-02-24T01:56:26.616Z,955.18
2023-02-24T01:58:26.512Z,955.19
2023-02-24T01:59:26.435Z,955.18
2023-02-24T02:00:26.423Z,955.2
2023-02-24T02:01:26.484Z,955.18
2023-02-24T02:02:26.600Z,955.17
2023-02-24T02:03:26.435Z,955.2
2023-02-24T02:04:26.419Z,955.18
2023-02-24T02:05:26.424Z,955.16
2023-02-24T02:06:26.663Z,955.17
2023-02-24T02:07:26.426Z,955.14
2023-02-24T02:08:26.440Z,955.19
2023-02-24T02:09:26.445Z,955.15
2023-02-24T02:10:26.442Z,955.2
2023-02-24T02:12:26.443Z,955.19
2023-02-24T02:13:26.649Z,955.21
2023-02-24T02:14:26.447Z,955.19
2023-02-24T02:15:26.450Z,955.22
2023-02-24T02:16:26.550Z,955.2
2023-02-24T02:17:26.449Z,955.17
2023-02-24T02:18:26.455Z,955.16
2023-02-24T02:19:26.472Z,955.15
2023-02-24T02:20:26.461Z,955.14
2023-02-24T02:21:26.543Z,955.12
2023-02-24T02:22:26.450Z,955.14
2023-02-24T02:23:26.460Z,955.13
2023-02-24T02:24:26.469Z,955.1
2023-02-24T02:25:26.491Z,955.13
2023-02-24T02:26:26.592Z,955.07
2023-02-24T02:27:26.474Z,955.09
2023-02-24T02:28:26.482Z,955.14
2023-02-24T02:29:26.601Z,955.11
2023-02-24T02:30:26.474Z,955.13
2023-02-24T02:31:26.696Z,955.11
2023-02-24T02:32:26.545Z,955.15
2023-02-24T02:33:26.489Z,955.13
2023-02-24T02:34:26.489Z,955.11
2023-02-24T02:35:26.495Z,955.13
2023-02-24T02:36:26.576Z,955.12
2023-02-24T02:37:26.495Z,955.14
2023-02-24T02:38:26.510Z,955.13
2023-02-24T02:39:26.576Z,955.16
2023-02-24T02:40:26.644Z,955.18
2023-02-24T02:42:26.594Z,955.14
2023-02-24T02:43:26.544Z,955.15
2023-02-24T02:46:26.578Z,955.13
2023-02-24T02:47:26.529Z,955.14
2023-02-24T02:48:26.522Z,955.16
2023-02-24T02:49:26.542Z,955.11
2023-02-24T02:50:26.557Z,955.15
2023-02-24T02:51:26.542Z,955.13
2023-02-24T02:52:26.542Z,955.16
2023-02-24T02:53:26.555Z,955.2
2023-02-24T02:54:26.698Z,955.18
2023-02-24T02:55:26.546Z,955.2
2023-02-24T02:56:26.545Z,955.21
2023-02-24T02:57:26.544Z,955.22
2023-02-24T02:58:26.564Z,955.25
2023-02-24T02:59:26.626Z,955.27
2023-02-24T03:01:26.668Z,955.26
2023-02-24T03:02:26.591Z,955.27
2023-02-24T03:04:26.612Z,955.28
2023-02-24T03:05:26.634Z,955.29
2023-02-24T03:06:26.562Z,955.34
2023-02-24T03:07:26.556Z,955.31
2023-02-24T03:09:26.607Z,955.32
2023-02-24T03:11:26.582Z,955.29
2023-02-24T03:12:26.582Z,955.28
2023-02-24T03:13:26.678Z,955.27
2023-02-24T03:14:26.629Z,955.28
2023-02-24T03:15:26.593Z,955.25
2023-02-24T03:16:26.765Z,955.24
2023-02-24T03:17:26.581Z,955.2
2023-02-24T03:18:26.591Z,955.22
2023-02-24T03:19:26.597Z,955.23
2023-02-24T03:20:26.597Z,955.21
2023-02-24T03:21:26.593Z,955.22
2023-02-24T03:22:26.593Z,955.18
2023-02-24T03:23:26.611Z,955.19
2023-02-24T03:24:26.590Z,955.2
2023-02-24T03:25:26.610Z,955.16
2023-02-24T03:26:26.658Z,955.11
2023-02-24T03:27:26.612Z,955.13
2023-02-24T03:28:26.610Z,955.12
2023-02-24T03:29:26.602Z,955.1
2023-02-24T03:30:26.621Z,955.05
2023-02-24T03:31:26.702Z,955.06
2023-02-24T03:33:26.702Z,955.02
2023-02-24T03:34:26.632Z,955.05
2023-02-24T03:35:26.692Z,955.03
2023-02-24T03:39:26.801Z,955.01
2023-02-24T03:40:26.644Z,955.07
2023-02-24T03:41:26.635Z,955.04
2023-02-24T03:43:26.657Z,955.02
2023-02-24T03:44:26.680Z,955.04
2023-02-24T03:45:26.646Z,955.03
2023-02-24T03:46:26.843Z,954.99
2023-02-24T03:48:26.853Z,954.97
2023-02-24T03:49:26.676Z,954.96
2023-02-24T03:50:26.795Z,954.98
2023-02-24T03:51:26.672Z,954.99
2023-02-24T03:52:26.691Z,954.98
2023-02-24T03:53:26.808Z,955.01
2023-02-24T03:54:26.677Z,954.98
2023-02-24T03:55:26.685Z,954.97
2023-02-24T03:57:26.762Z,954.95
2023-02-24T03:58:26.676Z,954.93
2023-02-24T03:59:26.688Z,954.9
2023-02-24T04:00:26.774Z,954.88
2023-02-24T04:01:26.698Z,954.92
2023-02-24T04:02:26.736Z,954.87
2023-02-24T04:03:26.693Z,954.91
2023-02-24T04:04:26.740Z,954.84
2023-02-24T04:05:26.728Z,954.82
2023-02-24T04:06:26.701Z,954.81
2023-02-24T04:07:26.722Z,954.75
2023-02-24T04:08:26.702Z,954.78
2023-02-24T04:09:26.792Z,954.79
2023-02-24T04:10:26.856Z,954.81
2023-02-24T04:11:26.711Z,954.82
2023-02-24T04:13:26.821Z,954.8
2023-02-24T04:14:26.723Z,954.79
2023-02-24T04:15:26.760Z,954.82
2023-02-24T04:16:26.738Z,954.79
2023-02-24T04:17:26.726Z,954.83
2023-02-24T04:18:26.802Z,954.78
2023-02-24T04:19:26.739Z,954.77
2023-02-24T04:20:26.848Z,954.8
2023-02-24T04:22:26.731Z,954.78
2023-02-24T04:23:26.880Z,954.75
2023-02-24T04:24:26.751Z,954.78
2023-02-24T04:25:26.772Z,954.79
2023-02-24T04:27:26.746Z,954.82
2023-02-24T04:29:26.751Z,954.83
2023-02-24T04:30:26.775Z,954.88
2023-02-24T04:31:27.001Z,954.85
2023-02-24T04:32:26.871Z,954.83
2023-02-24T04:33:26.758Z,954.86
2023-02-24T04:34:26.766Z,954.83
2023-02-24T04:35:26.805Z,954.87
2023-02-24T04:37:26.997Z,954.83
2023-02-24T04:39:26.914Z,954.85
2023-02-24T04:40:26.802Z,954.79
2023-02-24T04:41:27.087Z,954.75
2023-02-24T04:42:26.799Z,954.81
2023-02-24T04:43:26.779Z,954.8
2023-02-24T04:44:26.812Z,954.74
2023-02-24T04:45:26.966Z,954.73
2023-02-24T04:46:26.868Z,954.78
2023-02-24T04:47:26.896Z,954.77
2023-02-24T04:48:30.814Z,954.68
2023-02-24T04:49:26.938Z,954.76
2023-02-24T04:50:26.808Z,954.65
2023-02-24T04:51:26.857Z,954.68
2023-02-24T04:52:26.845Z,954.66
2023-02-24T04:53:26.895Z,954.78
2023-02-24T04:54:26.830Z,954.73
2023-02-24T04:55:27.046Z,954.68
2023-02-24T04:56:27.003Z,954.71
2023-02-24T04:57:27.062Z,954.66
2023-02-24T04:58:27.020Z,954.65
2023-02-24T04:59:26.990Z,954.66
2023-02-24T05:00:26.967Z,954.63
2023-02-24T05:01:27.039Z,954.61
2023-02-24T05:03:27.098Z,954.6
2023-02-24T05:07:26.983Z,954.54
2023-02-24T05:10:26.995Z,954.51
2023-02-24T05:11:26.858Z,954.5
2023-02-24T05:12:26.861Z,954.51
2023-02-24T05:13:26.932Z,954.48
2023-02-24T05:14:26.861Z,954.52
2023-02-24T05:15:26.884Z,954.47
2023-02-24T05:16:26.890Z,954.52
2023-02-24T05:17:26.883Z,954.53
2023-02-24T05:20:26.949Z,954.56
2023-02-24T05:22:26.998Z,954.5
2023-02-24T05:23:26.887Z,954.52
2023-02-24T05:24:26.892Z,954.53
2023-02-24T05:25:26.914Z,954.5
2023-02-24T05:26:26.888Z,954.52
2023-02-24T05:27:26.909Z,954.48
2023-02-24T05:28:26.959Z,954.49
2023-02-24T05:29:27.153Z,954.5
2023-02-24T05:30:27.028Z,954.46
2023-02-24T05:31:27.157Z,954.47
2023-02-24T05:32:27.076Z,954.46
2023-02-24T05:33:26.925Z,954.47
2023-02-24T05:34:26.924Z,954.43
2023-02-24T05:35:26.926Z,954.42
2023-02-24T05:37:26.919Z,954.39
2023-02-24T05:38:26.941Z,954.41
2023-02-24T05:39:27.087Z,954.4
2023-02-24T05:40:26.966Z,954.38
2023-02-24T05:42:27.043Z,954.34
2023-02-24T05:43:26.997Z,954.27
2023-02-24T05:44:26.960Z,954.28
2023-02-24T05:45:27.010Z,954.25
2023-02-24T05:47:27.066Z,954.21
2023-02-24T05:48:26.936Z,954.24
2023-02-24T05:49:28.437Z,954.25
2023-02-24T05:50:26.960Z,954.22
2023-02-24T05:51:26.953Z,954.24
2023-02-24T05:53:27.153Z,954.22
2023-02-24T05:54:26.972Z,954.24
2023-02-24T05:55:26.959Z,954.27
2023-02-24T05:56:26.958Z,954.26
2023-02-24T05:57:26.976Z,954.28
2023-02-24T05:58:26.979Z,954.25
2023-02-24T05:59:26.971Z,954.26
2023-02-24T06:00:27.034Z,954.25
2023-02-24T06:01:27.038Z,954.28
2023-02-24T06:02:27.281Z,954.24
2023-02-24T06:03:27.003Z,954.2
2023-02-24T06:04:26.987Z,954.22
2023-02-24T06:06:27.246Z,954.2
2023-02-24T06:08:27.208Z,954.21
2023-02-24T06:09:27.013Z,954.19
2023-02-24T06:10:26.997Z,954.18
2023-02-24T06:11:27.027Z,954.16
2023-02-24T06:12:26.992Z,954.18
2023-02-24T06:15:27.127Z,954.17
2023-02-24T06:16:27.033Z,954.16
2023-02-24T06:19:27.078Z,954.18
2023-02-24T06:20:27.120Z,954.19
2023-02-24T06:21:27.055Z,954.2
2023-02-24T06:22:27.026Z,954.14
2023-02-24T06:23:27.117Z,954.13
2023-02-24T06:24:27.032Z,954.12
2023-02-24T06:25:27.052Z,954.13
2023-02-24T06:26:27.105Z,954.17
2023-02-24T06:27:28.362Z,954.13
2023-02-24T06:28:27.039Z,954.1
2023-02-24T06:29:27.038Z,954.14
2023-02-24T06:30:27.102Z,954.16
2023-02-24T06:33:27.171Z,954.18
2023-02-24T06:34:27.073Z,954.19
2023-02-24T06:35:27.145Z,954.2
2023-02-24T06:36:27.083Z,954.21
2023-02-24T06:38:27.220Z,954.22
2023-02-24T06:39:27.081Z,954.17
2023-02-24T06:40:27.093Z,954.12
2023-02-24T06:41:27.252Z,954.11
2023-02-24T06:42:27.061Z,954.08
2023-02-24T06:43:27.080Z,954.09
2023-02-24T06:44:27.084Z,954.03
2023-02-24T06:45:27.119Z,954.06
2023-02-24T06:46:27.244Z,954.05
2023-02-24T06:47:28.436Z,954.02
2023-02-24T06:48:27.103Z,954.05
2023-02-24T06:49:27.110Z,954.09
2023-02-24T06:50:27.149Z,954.04
2023-02-24T06:51:27.210Z,954.08
2023-02-24T06:52:27.091Z,954.05
2023-02-24T06:53:27.109Z,954.06
2023-02-24T06:55:27.116Z,954.03
2023-02-24T06:56:27.158Z,954.05
2023-02-24T06:57:27.096Z,954.01
2023-02-24T06:58:27.320Z,954
2023-02-24T07:00:27.194Z,954.01
2023-02-24T07:02:27.175Z,953.97
2023-02-24T07:03:27.156Z,954.01
2023-02-24T07:04:28.687Z,954.03
2023-02-24T07:05:27.138Z,954.04
2023-02-24T07:06:27.141Z,954.01
2023-02-24T07:07:27.200Z,953.97
2023-02-24T07:08:27.136Z,954.01
2023-02-24T07:09:27.144Z,954.02
2023-02-24T07:10:27.126Z,953.96
2023-02-24T07:11:27.138Z,953.97
2023-02-24T07:12:27.245Z,953.95
2023-02-24T07:13:27.141Z,953.93
2023-02-24T07:15:27.160Z,953.92
2023-02-24T07:16:27.235Z,953.9
2023-02-24T07:17:27.143Z,953.92
2023-02-24T07:19:27.290Z,953.91
2023-02-24T07:20:27.188Z,953.95
2023-02-24T07:21:27.161Z,953.91
2023-02-24T07:22:27.331Z,953.95
2023-02-24T07:23:27.197Z,953.92
2023-02-24T07:24:27.284Z,953.94
2023-02-24T07:25:27.183Z,953.98
2023-02-24T07:26:27.178Z,953.94
2023-02-24T07:27:27.178Z,953.95
2023-02-24T07:29:27.301Z,953.96
2023-02-24T07:30:27.256Z,953.93
2023-02-24T07:34:27.492Z,953.94
2023-02-24T07:35:27.327Z,953.96
2023-02-24T07:36:27.208Z,953.91
2023-02-24T07:38:27.192Z,953.93
2023-02-24T07:39:27.214Z,953.88
2023-02-24T07:40:27.204Z,953.89
2023-02-24T07:41:27.214Z,953.91
2023-02-24T07:42:27.235Z,953.9
2023-02-24T07:43:27.263Z,953.93
2023-02-24T07:44:27.227Z,953.9
2023-02-24T07:46:27.249Z,953.88
2023-02-24T07:47:27.223Z,953.87
2023-02-24T07:48:27.221Z,953.84
2023-02-24T07:49:27.222Z,953.8
2023-02-24T07:50:27.232Z,953.78
2023-02-24T07:51:27.218Z,953.75
2023-02-24T07:52:27.250Z,953.79
2023-02-24T07:53:27.242Z,954.08
2023-02-24T07:54:27.265Z,954.16
2023-02-24T07:55:27.238Z,954.29
2023-02-24T07:56:27.295Z,954.28
2023-02-24T07:58:27.433Z,954.3
2023-02-24T07:59:27.441Z,954.28
2023-02-24T08:00:27.259Z,954.16
2023-02-24T08:01:27.282Z,954.03
2023-02-24T08:02:27.321Z,954.05
2023-02-24T08:03:27.255Z,953.97
2023-02-24T08:04:27.267Z,953.96
2023-02-24T08:05:27.281Z,953.89
2023-02-24T08:06:27.311Z,953.86
2023-02-24T08:08:27.263Z,953.85
2023-02-24T08:09:27.265Z,953.78
2023-02-24T08:10:27.428Z,953.75
2023-02-24T08:11:27.335Z,953.7
2023-02-24T08:12:27.935Z,953.71
2023-02-24T08:13:27.382Z,953.7
2023-02-24T08:14:27.265Z,953.69
2023-02-24T08:17:27.394Z,953.66
2023-02-24T08:18:27.289Z,953.61
2023-02-24T08:20:27.290Z,953.62
2023-02-24T08:21:27.342Z,953.71
2023-02-24T08:22:27.396Z,953.7
2023-02-24T08:23:27.456Z,953.65
2023-02-24T08:24:27.297Z,953.67
2023-02-24T08:26:27.410Z,953.68
2023-02-24T08:27:27.304Z,953.67
2023-02-24T08:29:27.624Z,953.65
2023-02-24T08:30:27.344Z,953.66
2023-02-24T08:31:27.552Z,953.59
2023-02-24T08:32:27.442Z,953.57
2023-02-24T08:34:27.364Z,953.57
2023-02-24T08:35:27.323Z,953.64
2023-02-24T08:37:27.439Z,953.62
2023-02-24T08:38:27.361Z,953.56
2023-02-24T08:39:27.338Z,953.58
2023-02-24T08:40:27.420Z,953.52
2023-02-24T08:42:27.460Z,953.42
2023-02-24T08:44:27.385Z,953.38
2023-02-24T08:46:27.487Z,953.37
2023-02-24T08:47:27.429Z,953.33
2023-02-24T08:48:27.360Z,953.35
2023-02-24T08:50:27.425Z,953.34
2023-02-24T08:52:27.385Z,953.33
2023-02-24T08:54:27.681Z,953.28
2023-02-24T08:55:27.407Z,953.27
2023-02-24T08:56:27.398Z,953.23
2023-02-24T08:58:27.510Z,953.27
2023-02-24T08:59:27.395Z,953.29
2023-02-24T09:00:27.623Z,953.21
2023-02-24T09:01:27.411Z,953.24
2023-02-24T09:02:27.475Z,953.21
2023-02-24T09:03:27.403Z,953.19
2023-02-24T09:04:27.466Z,953.13
2023-02-24T09:05:27.406Z,953.14
2023-02-24T09:06:27.427Z,953.09
2023-02-24T09:07:27.466Z,953.11
2023-02-24T09:08:27.433Z,953.07
2023-02-24T09:09:27.493Z,953.05
2023-02-24T09:10:27.435Z,953.06
2023-02-24T09:11:27.439Z,953.04
2023-02-24T09:12:27.469Z,952.99
2023-02-24T09:14:28.371Z,953
2023-02-24T09:15:27.445Z,952.95
2023-02-24T09:17:28.713Z,952.94
2023-02-24T09:18:27.474Z,952.92
2023-02-24T09:20:27.473Z,952.89
2023-02-24T09:21:27.437Z,952.9
2023-02-24T09:22:27.460Z,952.92
2023-02-24T09:24:27.450Z,952.88
2023-02-24T09:25:27.458Z,952.87
2023-02-24T09:28:27.655Z,952.89
2023-02-24T09:30:27.513Z,952.89
2023-02-24T09:31:27.725Z,952.91
2023-02-24T09:32:27.595Z,952.92
2023-02-24T09:33:27.488Z,952.88
2023-02-24T09:35:27.503Z,952.95
2023-02-24T09:36:27.486Z,952.94
2023-02-24T09:37:27.688Z,952.81
2023-02-24T09:38:27.497Z,952.84
2023-02-24T09:39:27.490Z,952.86
2023-02-24T09:40:27.609Z,952.85
2023-02-24T09:41:27.512Z,952.84
2023-02-24T09:42:27.484Z,952.87
2023-02-24T09:43:27.541Z,952.91
2023-02-24T09:44:27.598Z,952.78
2023-02-24T09:45:27.619Z,952.81
2023-02-24T09:46:27.637Z,952.83
2023-02-24T09:47:27.502Z,952.77
2023-02-24T09:48:27.500Z,952.74
2023-02-24T09:49:27.519Z,952.72
2023-02-24T09:50:51.462Z,952.67
2023-02-24T09:51:27.682Z,952.65
2023-02-24T09:52:27.532Z,952.68
2023-02-24T09:53:27.526Z,952.59
2023-02-24T09:54:27.526Z,952.57
2023-02-24T09:55:27.533Z,952.65
2023-02-24T09:57:27.649Z,952.61
2023-02-24T09:58:34.976Z,952.62
2023-02-24T09:59:27.551Z,952.58
2023-02-24T10:00:27.565Z,952.59
2023-02-24T10:01:27.590Z,952.57
2023-02-24T10:02:27.653Z,952.56
2023-02-24T10:03:27.548Z,952.5
2023-02-24T10:04:27.639Z,952.51
2023-02-24T10:05:27.562Z,952.49
2023-02-24T10:06:27.568Z,952.48
2023-02-24T10:07:27.573Z,952.45
2023-02-24T10:08:27.598Z,952.43
2023-02-24T10:09:27.788Z,952.41
2023-02-24T10:11:27.655Z,952.37
2023-02-24T10:12:27.600Z,952.32
2023-02-24T10:13:27.613Z,952.31
2023-02-24T10:14:34.637Z,952.3
2023-02-24T10:18:27.676Z,952.26
2023-02-24T10:19:27.617Z,952.19
2023-02-24T10:20:27.632Z,952.21
2023-02-24T10:21:27.592Z,952.18
2023-02-24T10:22:27.644Z,952.21
2023-02-24T10:24:27.600Z,952.2
2023-02-24T10:25:27.767Z,952.25
2023-02-24T10:26:27.633Z,952.21
2023-02-24T10:27:27.657Z,952.25
2023-02-24T10:28:27.612Z,952.21
2023-02-24T10:29:27.608Z,952.18
2023-02-24T10:31:27.748Z,952.07
2023-02-24T10:32:27.725Z,952.09
2023-02-24T10:33:27.621Z,952.1
2023-02-24T10:34:27.636Z,952.11
2023-02-24T10:35:27.629Z,952.06
2023-02-24T10:36:27.654Z,952.08
2023-02-24T10:37:29.139Z,952.03
2023-02-24T10:38:27.624Z,952.02
2023-02-24T10:39:27.659Z,951.91
2023-02-24T10:40:27.643Z,951.94
2023-02-24T10:41:27.660Z,951.92
2023-02-24T10:42:27.721Z,951.78
2023-02-24T10:43:27.673Z,951.91
2023-02-24T10:44:27.753Z,951.95
2023-02-24T10:45:27.717Z,951.9
2023-02-24T10:46:39.874Z,951.92
2023-02-24T10:47:27.659Z,951.93
2023-02-24T10:49:27.659Z,951.9
2023-02-24T10:50:27.681Z,951.89
2023-02-24T10:51:27.909Z,951.9
2023-02-24T10:52:27.701Z,951.91
2023-02-24T10:53:27.673Z,951.92
2023-02-24T10:54:27.677Z,951.9
2023-02-24T10:56:27.826Z,951.87
2023-02-24T10:57:27.725Z,951.83
2023-02-24T10:58:27.849Z,951.85
2023-02-24T10:59:27.710Z,951.87
2023-02-24T11:00:27.693Z,951.85
2023-02-24T11:01:27.747Z,951.86
2023-02-24T11:02:27.708Z,951.74
2023-02-24T11:03:32.595Z,951.76
2023-02-24T11:04:27.784Z,951.72
2023-02-24T11:05:27.707Z,951.7
2023-02-24T11:06:27.743Z,951.68
2023-02-24T11:07:27.694Z,951.63
2023-02-24T11:08:27.697Z,951.7
2023-02-24T11:09:27.786Z,951.71
2023-02-24T11:10:27.703Z,951.72
2023-02-24T11:11:27.735Z,951.65
2023-02-24T11:12:27.729Z,951.59
2023-02-24T11:13:27.820Z,951.6
2023-02-24T11:14:27.713Z,951.48
2023-02-24T11:15:27.761Z,951.5
2023-02-24T11:16:27.894Z,951.46
2023-02-24T11:17:27.915Z,951.38
2023-02-24T11:18:27.757Z,951.37
2023-02-24T11:19:27.847Z,951.38
2023-02-24T11:20:36.216Z,951.29
2023-02-24T11:21:27.747Z,951.32
2023-02-24T11:22:27.746Z,951.31
2023-02-24T11:24:27.817Z,951.27
2023-02-24T11:25:27.751Z,951.15
2023-02-24T11:26:27.820Z,951.22
2023-02-24T11:27:27.764Z,951.25
2023-02-24T11:28:27.758Z,951.22
2023-02-24T11:30:27.806Z,951.26
2023-02-24T11:31:28.157Z,951.25
2023-02-24T11:32:27.837Z,951.27
2023-02-24T11:34:28.906Z,951.24
2023-02-24T11:36:27.886Z,951.2
2023-02-24T11:37:27.794Z,951.13
2023-02-24T11:38:27.794Z,951.09
2023-02-24T11:39:27.771Z,951.13
2023-02-24T11:40:27.780Z,951.1
2023-02-24T11:41:27.784Z,951.22
2023-02-24T11:42:27.790Z,951.13
2023-02-24T11:43:27.791Z,951.09
2023-02-24T11:44:27.787Z,951.08
2023-02-24T11:45:27.790Z,951.03
2023-02-24T11:46:27.822Z,951.01
2023-02-24T11:47:27.798Z,950.99
2023-02-24T11:48:27.812Z,951
2023-02-24T11:49:27.824Z,950.94
2023-02-24T11:50:27.807Z,950.93
2023-02-24T11:51:27.921Z,950.8
2023-02-24T11:52:27.818Z,950.89
2023-02-24T11:53:27.821Z,950.84
2023-02-24T11:54:27.905Z,950.83
2023-02-24T11:55:28.285Z,950.8
2023-02-24T11:57:27.904Z,950.82
2023-02-24T11:58:27.905Z,950.81
2023-02-24T11:59:27.863Z,950.67
2023-02-24T12:00:27.948Z,950.8
2023-02-24T12:01:28.020Z,950.78
2023-02-24T12:02:27.877Z,950.7
2023-02-24T12:03:27.847Z,950.74
2023-02-24T12:04:28.277Z,950.61
2023-02-24T12:06:27.970Z,950.6
2023-02-24T12:07:28.460Z,950.56
2023-02-24T12:08:27.852Z,950.54
2023-02-24T12:09:27.894Z,950.57
2023-02-24T12:10:27.895Z,950.51
2023-02-24T12:12:27.875Z,950.51
2023-02-24T12:13:27.892Z,950.46
2023-02-24T12:14:27.882Z,950.39
2023-02-24T12:15:27.888Z,950.47
2023-02-24T12:16:27.921Z,950.39
2023-02-24T12:17:27.863Z,950.37
2023-02-24T12:20:27.946Z,950.31
2023-02-24T12:21:27.904Z,950.28
2023-02-24T12:22:27.923Z,950.2
2023-02-24T12:23:27.899Z,950.17
2023-02-24T12:24:27.886Z,950.18
2023-02-24T12:25:27.888Z,950.2
2023-02-24T12:26:27.921Z,950.16
2023-02-24T12:28:27.913Z,950.12
2023-02-24T12:29:27.910Z,950.09
2023-02-24T12:30:27.940Z,950.11
2023-02-24T12:31:28.170Z,950.12
2023-02-24T12:32:27.945Z,950.08
2023-02-24T12:33:27.964Z,950.09
2023-02-24T12:34:27.930Z,950
2023-02-24T12:35:27.926Z,950.05
2023-02-24T12:36:30.570Z,949.99
2023-02-24T12:38:27.996Z,949.97
2023-02-24T12:39:28.003Z,949.93
2023-02-24T12:40:27.959Z,949.9
2023-02-24T12:41:28.016Z,949.92
2023-02-24T12:42:27.949Z,949.9
2023-02-24T12:43:27.932Z,949.89
2023-02-24T12:44:27.980Z,949.84
2023-02-24T12:45:27.945Z,949.9
2023-02-24T12:46:27.958Z,949.89
2023-02-24T12:47:27.960Z,949.85
2023-02-24T12:48:27.952Z,949.76
2023-02-24T12:49:27.985Z,949.77
2023-02-24T12:50:27.989Z,949.83
2023-02-24T12:51:27.960Z,949.8
2023-02-24T12:52:27.994Z,949.68
2023-02-24T12:53:27.965Z,949.71
2023-02-24T12:54:27.972Z,949.73
2023-02-24T12:55:27.957Z,949.64
2023-02-24T12:57:27.966Z,949.59
2023-02-24T12:58:28.036Z,949.5
2023-02-24T12:59:27.979Z,949.6
2023-02-24T13:00:27.967Z,949.56
2023-02-24T13:02:28.172Z,949.37
2023-02-24T13:03:27.997Z,949.46
2023-02-24T13:04:27.992Z,949.47
2023-02-24T13:05:27.977Z,949.55
2023-02-24T13:06:28.087Z,949.54
2023-02-24T13:07:27.997Z,949.48
2023-02-24T13:08:28.001Z,949.53
2023-02-24T13:09:28.035Z,949.51
2023-02-24T13:11:28.082Z,949.5
2023-02-24T13:12:28.016Z,949.43
2023-02-24T13:13:28.020Z,949.47
2023-02-24T13:16:28.036Z,949.35
2023-02-24T13:17:28.011Z,949.34
2023-02-24T13:18:28.032Z,949.36
2023-02-24T13:19:28.071Z,949.35
2023-02-24T13:20:28.033Z,949.34
2023-02-24T13:21:28.203Z,949.3
2023-02-24T13:22:28.017Z,949.29
2023-02-24T13:23:28.019Z,949.3
2023-02-24T13:24:28.056Z,949.28
2023-02-24T13:25:28.037Z,949.26
2023-02-24T13:26:28.050Z,949.24
2023-02-24T13:27:28.034Z,949.21
2023-02-24T13:28:28.052Z,949.23
2023-02-24T13:29:28.042Z,949.25
2023-02-24T13:30:28.055Z,949.26
2023-02-24T13:31:28.192Z,949.23
2023-02-24T13:32:28.251Z,949.19
2023-02-24T13:33:28.050Z,949.12
2023-02-24T13:34:28.050Z,949.1
2023-02-24T13:35:28.059Z,949.09
2023-02-24T13:36:28.061Z,949.1
2023-02-24T13:37:28.069Z,949.02
2023-02-24T13:38:28.100Z,948.92
2023-02-24T13:39:28.135Z,948.8
2023-02-24T13:40:28.133Z,948.77
2023-02-24T13:41:28.136Z,948.73
2023-02-24T13:42:28.082Z,948.76
2023-02-24T13:43:28.119Z,948.71
2023-02-24T13:44:28.120Z,948.74
2023-02-24T13:45:28.089Z,948.76
2023-02-24T13:46:28.126Z,948.8
2023-02-24T13:47:28.094Z,948.76
2023-02-24T13:48:28.098Z,948.67
2023-02-24T13:49:28.126Z,948.79
2023-02-24T13:50:28.131Z,948.83
2023-02-24T13:51:28.098Z,948.77
2023-02-24T13:52:28.114Z,948.83
2023-02-24T13:53:28.139Z,948.86
2023-02-24T13:54:28.110Z,948.72
2023-02-24T13:55:28.115Z,948.75
2023-02-24T13:56:28.241Z,948.76
2023-02-24T13:57:28.188Z,948.75
2023-02-24T13:58:28.156Z,948.81
2023-02-24T13:59:28.227Z,948.86
2023-02-24T14:00:28.132Z,948.82
2023-02-24T14:01:28.188Z,948.83
2023-02-24T14:02:28.228Z,948.8
2023-02-24T14:03:28.141Z,948.85
2023-02-24T14:04:29.582Z,948.88
2023-02-24T14:05:28.246Z,948.81
2023-02-24T14:06:28.142Z,948.85
2023-02-24T14:07:28.141Z,948.81
2023-02-24T14:08:28.170Z,948.65
2023-02-24T14:09:28.164Z,948.72
2023-02-24T14:11:28.256Z,948.64
2023-02-24T14:12:28.212Z,948.72
2023-02-24T14:13:28.194Z,948.69
2023-02-24T14:14:28.176Z,948.7
2023-02-24T14:15:28.249Z,948.72
2023-02-24T14:16:28.182Z,948.71
2023-02-24T14:17:28.193Z,948.63
2023-02-24T14:18:28.173Z,948.67
2023-02-24T14:19:28.199Z,948.56
2023-02-24T14:20:28.199Z,948.57
2023-02-24T14:21:28.200Z,948.51
2023-02-24T14:22:28.202Z,948.59
2023-02-24T14:23:28.213Z,948.52
2023-02-24T14:24:28.191Z,948.4
2023-02-24T14:25:28.203Z,948.42
2023-02-24T14:26:28.210Z,948.27
2023-02-24T14:27:28.215Z,948.24
2023-02-24T14:28:28.212Z,948.25
2023-02-24T14:29:28.206Z,948.18
2023-02-24T14:30:28.273Z,948.27
2023-02-24T14:31:28.322Z,948.25
2023-02-24T14:32:28.475Z,948.26
2023-02-24T14:33:28.208Z,948.29
2023-02-24T14:34:28.211Z,948.26
2023-02-24T14:35:28.217Z,948.23
2023-02-24T14:36:28.213Z,948.25
2023-02-24T14:37:28.222Z,948.19
2023-02-24T14:38:28.233Z,948.21
2023-02-24T14:39:28.226Z,948.17